KPDXKMMV

Guest
Details From KPDX - Portland Intl
To KMMV - Mc Minnville Muni
Flight Number -
Tags Generated
Created
Modified
Stats Distance 32 nm / 59 km
Max Altitude 0 ft / 0 m
Waypoints 2
Social Downloads 0
Likes 0
Share VATSIM

Download

Looking for another format? Having issues loading an existing format? Contact us
Advertisement - Login to hide

Notes

Generated

Route

KPDX KMMV

ID Type Via Altitude Latitude Longitude Leg Dist Tot Dist Heading (true) Name
O KPDX APT - 0 ft / 0 m 45.58243˚ -122.61681˚ - 0 nm - -
O KMMV APT - 0 ft / 0 m 45.19929˚ -123.13106˚ 31 nm 31 nm 223° / 223° -

Altitude Profile

Advertisement - Login to hide

KPDX

Details ICAO KPDX (PDX)
Name PORTLAND INTL
Region United States
Timezone America/Los_Angeles (UTC-8.0)
Stats Elevation 30 ft / 9 m (AMSL)
Location 45.588839° -122.597259°
Runways 3
Magnetic Variation 15.295° E

METAR

KPDX 130853Z 14005KT 10SM BKN050 OVC180 03/M02 A3043 RMK AO2 SLP303 T00281022 51007

Decode

TAF

KPDX 130901Z 1309/1406 13005KT P6SM SCT050 BKN200 FM131400 VRB03KT P6SM FEW250 FM132000 10010KT P6SM SCT250

Decode

Departure Runways

ID Width Length Bearing (true) Bearing (mag) Surface Threshold Offset Overrun Length
03 150 ft / 46 m 6,994 ft / 2,132 m 44.93° 29.64° Asphalt 0 ft / 0 m 0 ft / 0 m
10L 150 ft / 46 m 7,986 ft / 2,434 m 119.11° 103.82° Asphalt 0 ft / 0 m 0 ft / 0 m
10R 150 ft / 46 m 10,980 ft / 3,347 m 119.09° 103.80° Asphalt 0 ft / 0 m 0 ft / 0 m
21 150 ft / 46 m 6,994 ft / 2,132 m 224.94° 209.65° Asphalt 680 ft / 207 m 0 ft / 0 m
28L 150 ft / 46 m 10,980 ft / 3,347 m 299.12° 283.83° Asphalt 0 ft / 0 m 1,000 ft / 305 m
28R 150 ft / 46 m 7,986 ft / 2,434 m 299.13° 283.84° Asphalt 0 ft / 0 m 0 ft / 0 m

KMMV

Details ICAO KMMV (MMV)
Name MC MINNVILLE MUNI
Region United States
Timezone America/Los_Angeles (UTC-8.0)
Stats Elevation 163 ft / 50 m (AMSL)
Location 45.194348° -123.135667°
Runways 2
Magnetic Variation 15.292° E

METAR

KMMV 130853Z AUTO 00000KT 10SM CLR 02/M01 A3040 RMK AO2 SLP295 T00171006 51004

Decode

TAF

Not found

Destination Runways

ID Width Length Bearing (true) Bearing (mag) Surface Threshold Offset Overrun Length
04 151 ft / 46 m 5,411 ft / 1,649 m 57.10° 41.81° Asphalt 0 ft / 0 m 1,001 ft / 305 m
17 151 ft / 46 m 4,680 ft / 1,427 m 185.87° 170.58° Asphalt 0 ft / 0 m 0 ft / 0 m
22 151 ft / 46 m 5,411 ft / 1,649 m 237.12° 221.83° Asphalt 0 ft / 0 m 0 ft / 0 m
35 151 ft / 46 m 4,680 ft / 1,427 m 5.87° 350.58° Asphalt 0 ft / 0 m 0 ft / 0 m

Approach Navaids

Runway Type Ident Frequency Range Bearing (true) Bearing (mag) Slope Elevation
22 Localiser IMMV 110.90 MHz 18 nm / 33 km 237.09° 221.80° - 158 ft / 48 m (AMSL)
22 Glidescope IMMV 110.90 MHz 10 nm / 19 km 237.11° 221.82° 3.00° 160 ft / 49 m (AMSL)